ADDS METAR Data INFO
IDs: Format: Raw Decoded Include TAF

Data at: 1716 UTC 23 Oct 2017

KSTC 231653Z 29016G26KT 10SM SCT039 13/04 A2978 RMK AO2 PK WND 29030/1626 SLP092 T01330044
KSTC 231553Z 29016KT 10SM CLR 13/05 A2976 RMK AO2 SLP085 T01330050
KSTC 231453Z 30014KT 10SM CLR 12/05 A2975 RMK AO2 SLP085 T01170050 50005
KSTC 231353Z 29013KT 10SM CLR 11/06 A2976 RMK AO2 SLP088 T01110061
KSTC 231253Z 22005KT 10SM CLR 08/04 A2974 RMK AO2 SLP086 T00780039
KSTC 231153Z 21006KT 10SM SCT085 08/04 A2974 RMK AO2 SLP082 T00780039 10117 20072 55005
KSTC 231053Z AUTO 20008KT 10SM CLR 09/04 A2974 RMK AO2 SLP081 T00890039
KSTC 230953Z AUTO 18008KT 10SM FEW060 OVC090 11/03 A2974 RMK AO2 SLP082 T01060033
KSTC 230853Z AUTO 18007KT 10SM OVC090 11/03 A2975 RMK AO2 SLP085 T01060033 58012
KSTC 230753Z AUTO 17007KT 10SM OVC100 10/03 A2977 RMK AO2 SLP090 T01000033
KSTC 230653Z AUTO 18007KT 10SM BKN110 11/03 A2979 RMK AO2 SLP096 T01110028
KSTC 230553Z AUTO 17009KT 10SM BKN095 OVC110 12/02 A2979 RMK AO2 SLP097 T01170022 10133 20094 401670056 58021
KSTC 230453Z AUTO 19010KT 10SM SCT060 OVC080 12/02 A2983 RMK AO2 SLP111 T01220022
KSTC 230353Z 18012G18KT 10SM OVC095 13/02 A2984 RMK AO2 SLP115 T01280017
KSTC 230253Z 17009KT 10SM OVC110 12/02 A2985 RMK AO2 SLP121 T01220017 58009
KSTC 230153Z 16008KT 10SM CLR 10/02 A2987 RMK AO2 SLP128 T01000022
KSTC 230053Z 15007KT 10SM CLR 10/03 A2988 RMK AO2 SLP133 T01000028
KSTC 222353Z 16007KT 10SM CLR 11/03 A2988 RMK AO2 SLP133 T01110028 10167 20111 55007
KSTC 222253Z 17006KT 10SM CLR 13/02 A2988 RMK AO2 SLP131 T01280022
KSTC 222153Z 21009KT 10SM CLR 16/00 A2989 RMK AO2 SLP134 T01610000
KSTC 222053Z 24010KT 10SM CLR 17/00 A2990 RMK AO2 SLP137 T01670000 56019
KSTC 221953Z 24011KT 10SM CLR 16/01 A2992 RMK AO2 SLP142 T01610011
KSTC 221853Z 25015G24KT 10SM CLR 16/02 A2994 RMK AO2 SLP149 T01610017
KSTC 221753Z 28013KT 10SM CLR 15/02 A2996 RMK AO2 SLP157 T01500022 10150 20056 50003
KSTC 221653Z 25012KT 10SM CLR 13/04 A2997 RMK AO2 SLP161 T01330039
KSTC 221553Z 25009KT 10SM CLR 12/05 A2997 RMK AO2 SLP161 T01170050
KSTC 221453Z 25010KT 10SM CLR 08/05 A2995 RMK AO2 SLP155 T00830050 51012
KSTC 221353Z 25006KT 10SM CLR 06/04 A2995 RMK AO2 SLP155 T00560044
KSTC 221253Z 23008KT 10SM CLR 06/04 A2994 RMK AO2 SLP151 T00610039
KSTC 221153Z 25006KT 10SM CLR 07/04 A2992 RMK AO2 SLP143 70057 T00670044 10083 20061 51018
KSTC 221053Z AUTO 24007KT 10SM CLR 07/05 A2989 RMK AO2 SLP135 T00720050
KSTC 220953Z AUTO 24007KT 10SM CLR 07/05 A2989 RMK AO2 SLP132 T00720050
KSTC 220853Z AUTO 26007KT 10SM CLR 08/06 A2986 RMK AO2 SLP122 T00780056 53008
KSTC 220753Z AUTO 24007KT 10SM CLR 07/06 A2986 RMK AO2 SLP120 T00720056
KSTC 220653Z AUTO 22006KT 10SM CLR 08/06 A2984 RMK AO2 SLP116 T00780061
KSTC 220553Z AUTO 22006KT 10SM CLR 08/06 A2984 RMK AO2 SLP115 T00780061 10122 20078 401890078 53023